Time;durP1;ratioP1;P1;durP2;ratioP2;P2;SDS_P1;SDS_P2;PMS_P1;PMS_P2;Temp;Humidity;BMP_temperature;BMP_pressure;BME280_temperature;BME280_humidity;BME280_pressure;Samples;Min_cycle;Max_cycle;Signal;HPM_P1;HPM_P2
2021/06/16 00:08:58;;;;;;;4.12;2.92;;;22.10;99.90;;;;;;6739165;88;20666;-76
2021/06/16 00:18:59;;;;;;;4.60;2.95;;;21.90;99.90;;;;;;6741785;88;20203;-77
2021/06/16 00:29:00;;;;;;;6.25;2.90;;;21.70;99.90;;;;;;6734051;88;20246;-76
2021/06/16 00:39:00;;;;;;;4.97;2.80;;;21.70;99.90;;;;;;6740251;88;20215;-77
2021/06/16 00:49:02;;;;;;;8.35;3.50;;;21.50;99.90;;;;;;6742697;88;20203;-75
2021/06/16 00:59:02;;;;;;;5.90;3.37;;;21.40;99.90;;;;;;6747975;88;20285;-75
2021/06/16 01:09:10;;;;;;;5.67;3.80;;;21.20;99.90;;;;;;6751992;88;20711;-75
2021/06/16 01:19:31;;;;;;;5.68;3.37;;;21.40;99.90;;;;;;6751918;88;20606;-75
2021/06/16 01:29:35;;;;;;;5.85;3.40;;;21.10;99.90;;;;;;6752003;88;20220;-75
2021/06/16 01:39:38;;;;;;;5.37;3.33;;;20.90;99.90;;;;;;6751282;88;20192;-76
2021/06/16 01:49:39;;;;;;;6.90;3.20;;;20.50;99.90;;;;;;6743605;88;20775;-75
2021/06/16 01:59:41;;;;;;;5.12;3.08;;;20.30;99.90;;;;;;6734121;88;20388;-75
2021/06/16 02:09:45;;;;;;;7.50;3.25;;;20.10;99.90;;;;;;6733635;88;20273;-75
2021/06/16 02:19:47;;;;;;;5.80;3.20;;;20.00;99.90;;;;;;6734456;88;20234;-75
2021/06/16 02:29:47;;;;;;;6.00;3.15;;;20.00;99.90;;;;;;6734354;88;20220;-76
2021/06/16 02:39:54;;;;;;;7.82;3.00;;;19.80;99.90;;;;;;6734269;88;20183;-75
2021/06/16 02:49:58;;;;;;;7.22;3.30;;;19.60;99.90;;;;;;6744179;88;20312;-76
2021/06/16 03:00:00;;;;;;;8.63;3.23;;;19.40;99.90;;;;;;6751567;88;20196;-76
2021/06/16 03:10:03;;;;;;;7.90;3.40;;;19.30;99.90;;;;;;6745882;88;20224;-76
2021/06/16 03:20:05;;;;;;;7.65;3.10;;;19.10;99.90;;;;;;6746870;88;20180;-77
2021/06/16 03:30:47;;;;;;;6.32;3.12;;;19.10;99.90;;;;;;6773119;77;20256;-80
2021/06/16 03:40:51;;;;;;;8.30;3.17;;;19.10;99.90;;;;;;6724812;88;20353;-80
2021/06/16 03:50:53;;;;;;;6.40;3.13;;;18.90;99.90;;;;;;6714197;88;20249;-81
2021/06/16 04:00:54;;;;;;;8.13;3.03;;;18.90;99.90;;;;;;6729686;88;20189;-81
2021/06/16 04:10:55;;;;;;;7.15;3.12;;;18.90;99.90;;;;;;6752036;88;20314;-80
2021/06/16 04:20:56;;;;;;;6.00;3.40;;;19.00;99.90;;;;;;6752115;88;20211;-80
2021/06/16 04:30:56;;;;;;;6.57;3.27;;;19.10;99.90;;;;;;6756299;88;20205;-80
2021/06/16 04:40:57;;;;;;;6.50;3.50;;;19.10;99.90;;;;;;6739643;88;20514;-81
2021/06/16 04:50:58;;;;;;;6.70;3.47;;;19.20;99.90;;;;;;6752864;88;20215;-80
2021/06/16 05:00:59;;;;;;;9.03;4.00;;;19.30;99.90;;;;;;6751419;88;20213;-81
2021/06/16 05:10:59;;;;;;;7.60;4.20;;;19.40;99.90;;;;;;6747337;88;20228;-81
2021/06/16 05:21:00;;;;;;;10.23;4.68;;;19.60;99.90;;;;;;6747039;88;20207;-81
2021/06/16 05:31:01;;;;;;;9.15;4.70;;;19.60;99.90;;;;;;6751352;88;20246;-81
2021/06/16 05:41:02;;;;;;;9.00;5.80;;;19.90;99.90;;;;;;6747683;88;20691;-81
2021/06/16 05:51:03;;;;;;;8.30;5.30;;;20.10;99.90;;;;;;6750887;88;20181;-80
2021/06/16 06:01:04;;;;;;;9.15;5.82;;;20.30;99.90;;;;;;6745018;88;20180;-80
2021/06/16 06:11:04;;;;;;;9.90;5.75;;;20.70;99.90;;;;;;6747648;88;20211;-83
2021/06/16 06:21:05;;;;;;;7.40;5.28;;;21.20;99.90;;;;;;6747594;88;20206;-81
2021/06/16 06:31:06;;;;;;;9.13;5.05;;;21.90;99.90;;;;;;6744314;88;20195;-79
2021/06/16 06:41:06;;;;;;;14.93;5.12;;;22.50;99.90;;;;;;6742602;88;20826;-80
2021/06/16 06:51:07;;;;;;;9.80;5.53;;;23.10;99.90;;;;;;6748001;88;20219;-81
2021/06/16 07:01:08;;;;;;;29.42;5.72;;;23.20;99.90;;;;;;6750097;88;20197;-81
2021/06/16 07:11:09;;;;;;;14.77;5.00;;;23.80;99.90;;;;;;6747338;88;20608;-80
2021/06/16 07:21:10;;;;;;;8.97;4.43;;;25.20;99.90;;;;;;6741098;88;20166;-77
2021/06/16 07:31:11;;;;;;;9.23;4.75;;;25.60;99.90;;;;;;6729370;88;20303;-77
2021/06/16 07:41:11;;;;;;;9.73;5.07;;;25.40;99.90;;;;;;6734311;88;20272;-77
2021/06/16 07:51:12;;;;;;;11.25;4.90;;;25.10;99.90;;;;;;6735041;88;20335;-77
2021/06/16 08:01:12;;;;;;;9.02;4.50;;;26.70;99.90;;;;;;6733220;88;20200;-77
2021/06/16 08:11:14;;;;;;;7.00;4.78;;;27.60;99.90;;;;;;6734887;88;20172;-77
2021/06/16 08:21:16;;;;;;;8.23;5.40;;;26.70;99.90;;;;;;6741955;88;20359;-78
2021/06/16 08:31:16;;;;;;;6.45;5.55;;;26.60;99.90;;;;;;6735947;88;20253;-77
2021/06/16 08:41:18;;;;;;;6.82;5.18;;;27.20;99.90;;;;;;6748728;88;20292;-78
2021/06/16 08:51:20;;;;;;;8.17;5.10;;;28.20;99.90;;;;;;6749097;88;20203;-79
2021/06/16 09:01:21;;;;;;;9.95;5.10;;;27.90;99.90;;;;;;6744340;88;20253;-79
2021/06/16 09:11:23;;;;;;;9.15;5.28;;;28.70;99.60;;;;;;6744700;88;20243;-79
2021/06/16 09:21:39;;;;;;;6.97;4.87;;;29.20;98.50;;;;;;6736459;88;20204;-79
2021/06/16 09:31:44;;;;;;;8.32;4.68;;;29.40;98.30;;;;;;6746104;88;20741;-79
2021/06/16 09:41:53;;;;;;;8.30;5.03;;;30.10;97.50;;;;;;6739316;88;20194;-79
2021/06/16 09:51:53;;;;;;;8.23;5.00;;;30.30;96.00;;;;;;6735659;88;20307;-78
2021/06/16 10:01:55;;;;;;;8.93;5.05;;;30.70;95.90;;;;;;6731001;88;20229;-78
2021/06/16 10:11:55;;;;;;;11.00;4.82;;;30.70;95.50;;;;;;6735122;88;20203;-78
2021/06/16 10:21:56;;;;;;;7.75;4.97;;;30.90;95.10;;;;;;6734108;88;20184;-79
2021/06/16 10:32:05;;;;;;;6.63;4.40;;;32.00;93.80;;;;;;6731376;88;20377;-79
2021/06/16 10:42:05;;;;;;;9.95;4.72;;;31.60;94.00;;;;;;6741852;88;20668;-78
2021/06/16 10:52:07;;;;;;;12.10;4.50;;;33.00;92.10;;;;;;6732279;88;20243;-78
2021/06/16 11:02:13;;;;;;;9.45;4.47;;;33.00;91.60;;;;;;6735034;88;20306;-78
2021/06/16 11:12:14;;;;;;;9.52;4.40;;;32.80;90.70;;;;;;6744128;88;20223;-80
2021/06/16 11:22:14;;;;;;;6.90;4.00;;;33.80;88.60;;;;;;6740164;88;20313;-79
2021/06/16 11:32:15;;;;;;;8.85;4.30;;;33.10;86.90;;;;;;6743591;88;20258;-80
2021/06/16 11:42:16;;;;;;;7.53;3.73;;;35.40;83.60;;;;;;6741100;88;20233;-80
2021/06/16 11:52:19;;;;;;;6.95;3.78;;;35.40;79.80;;;;;;6743608;88;20243;-80
2021/06/16 12:02:22;;;;;;;6.25;3.50;;;33.90;81.00;;;;;;6745295;88;20213;-80
2021/06/16 12:12:24;;;;;;;7.25;3.72;;;33.50;79.80;;;;;;6738585;88;20193;-80
2021/06/16 12:22:28;;;;;;;5.18;3.45;;;33.50;78.30;;;;;;6738629;88;20217;-79
2021/06/16 12:32:37;;;;;;;4.93;3.45;;;33.10;80.20;;;;;;6737686;88;20294;-78
2021/06/16 12:42:40;;;;;;;5.00;3.28;;;33.30;79.50;;;;;;6742312;88;20212;-79
2021/06/16 12:52:40;;;;;;;5.32;3.60;;;34.40;76.00;;;;;;6748403;77;20231;-74
2021/06/16 13:02:41;;;;;;;5.85;3.78;;;34.30;76.90;;;;;;6741160;88;20223;-74
2021/06/16 13:13:18;;;;;;;7.03;3.67;;;34.70;76.00;;;;;;6736480;88;20193;-74
2021/06/16 13:23:19;;;;;;;6.05;3.90;;;34.30;74.70;;;;;;6724610;88;20217;-74
2021/06/16 13:33:39;;;;;;;4.35;3.20;;;35.80;74.50;;;;;;6733096;88;20196;-76
2021/06/16 13:43:42;;;;;;;6.55;3.37;;;34.50;72.60;;;;;;6732802;88;20628;-77
2021/06/16 13:53:43;;;;;;;6.22;3.40;;;33.40;74.60;;;;;;6731844;88;20208;-76
2021/06/16 14:03:43;;;;;;;4.75;3.05;;;33.90;73.20;;;;;;6732629;88;20218;-75
2021/06/16 14:13:44;;;;;;;4.78;3.10;;;33.20;72.90;;;;;;6732205;88;20188;-77
2021/06/16 14:23:44;;;;;;;3.85;3.08;;;34.80;70.80;;;;;;6731983;88;20741;-76
2021/06/16 14:33:45;;;;;;;4.27;2.77;;;34.60;70.70;;;;;;6731931;88;20229;-74
2021/06/16 14:43:45;;;;;;;4.55;3.17;;;35.40;70.70;;;;;;6733565;88;20216;-75
2021/06/16 14:53:47;;;;;;;3.60;2.72;;;36.10;67.80;;;;;;6733861;88;20663;-76
2021/06/16 15:03:49;;;;;;;3.67;2.70;;;35.90;66.20;;;;;;6735932;88;20221;-74
2021/06/16 15:13:50;;;;;;;3.75;2.97;;;35.50;66.70;;;;;;6735217;88;20192;-75
2021/06/16 15:23:50;;;;;;;4.07;3.20;;;35.50;66.40;;;;;;6720033;88;20739;-75
2021/06/16 15:33:51;;;;;;;4.40;2.67;;;35.00;66.40;;;;;;6716932;88;20267;-75
2021/06/16 15:43:52;;;;;;;4.10;2.75;;;34.70;65.60;;;;;;6718025;88;20381;-75
2021/06/16 15:53:52;;;;;;;5.37;2.78;;;34.40;65.60;;;;;;6718293;88;20210;-75
2021/06/16 16:03:53;;;;;;;5.68;2.60;;;34.90;64.60;;;;;;6726290;88;20205;-77
2021/06/16 16:13:56;;;;;;;3.90;2.80;;;35.30;65.00;;;;;;6730396;88;20218;-79
2021/06/16 16:23:57;;;;;;;6.70;2.70;;;34.70;65.60;;;;;;6732227;88;20195;-76
2021/06/16 16:33:57;;;;;;;3.55;2.70;;;34.00;66.30;;;;;;6733109;88;20178;-79
2021/06/16 16:43:58;;;;;;;;;;;33.80;65.70;;;;;;6725647;88;20207;-78
2021/06/16 16:53:58;;;;;;;4.60;2.80;;;33.40;66.70;;;;;;6739748;88;20054;-76
2021/06/16 17:03:59;;;;;;;4.65;3.30;;;33.60;67.00;;;;;;6742406;88;20223;-78
2021/06/16 17:14:01;;;;;;;3.17;2.53;;;33.50;66.00;;;;;;6747272;88;20193;-77
2021/06/16 17:24:01;;;;;;;4.07;2.80;;;34.30;66.80;;;;;;6741406;88;20259;-77
2021/06/16 17:34:03;;;;;;;5.60;3.27;;;33.80;66.70;;;;;;6732469;88;21100;-76
2021/06/16 17:44:04;;;;;;;4.30;2.90;;;34.80;66.90;;;;;;6733659;88;20198;-76
2021/06/16 17:54:04;;;;;;;5.40;2.93;;;33.50;70.10;;;;;;6733058;88;20712;-78
2021/06/16 18:04:05;;;;;;;10.07;3.90;;;33.10;69.10;;;;;;6730220;88;20292;-80
2021/06/16 18:14:06;;;;;;;4.82;3.42;;;32.40;71.10;;;;;;6731774;88;20244;-78
2021/06/16 18:24:07;;;;;;;6.47;2.95;;;34.60;69.60;;;;;;6732920;88;20185;-76
2021/06/16 18:34:07;;;;;;;3.63;2.93;;;35.00;68.50;;;;;;6732834;88;20681;-77
2021/06/16 18:44:14;;;;;;;5.72;3.35;;;33.60;71.30;;;;;;6730656;88;20208;-78
2021/06/16 18:54:24;;;;;;;6.60;3.70;;;32.70;72.90;;;;;;6730560;88;20214;-77
2021/06/16 19:04:37;;;;;;;4.50;3.50;;;32.10;74.40;;;;;;6733383;88;20255;-77
2021/06/16 19:14:38;;;;;;;4.97;3.55;;;31.40;75.70;;;;;;6738111;88;20701;-76
2021/06/16 19:24:39;;;;;;;4.57;3.40;;;30.90;77.50;;;;;;6727731;88;20260;-76
2021/06/16 19:34:40;;;;;;;6.83;3.73;;;30.30;79.40;;;;;;6715649;88;20204;-77
2021/06/16 19:44:40;;;;;;;5.37;3.70;;;29.70;80.90;;;;;;6717260;88;20506;-77
2021/06/16 19:54:41;;;;;;;5.80;3.90;;;29.20;81.70;;;;;;6718117;88;20212;-77
2021/06/16 20:04:41;;;;;;;7.68;3.90;;;28.90;83.20;;;;;;6721201;88;20247;-76
2021/06/16 20:14:42;;;;;;;5.75;4.03;;;28.50;84.20;;;;;;6718061;88;20326;-78
2021/06/16 20:24:42;;;;;;;5.97;3.80;;;28.10;85.10;;;;;;6716613;88;20247;-77
2021/06/16 20:34:43;;;;;;;7.75;4.10;;;27.80;86.30;;;;;;6714316;88;20295;-79
2021/06/16 20:44:44;;;;;;;5.72;4.12;;;27.50;87.10;;;;;;6717601;88;21026;-77
2021/06/16 20:54:44;;;;;;;5.87;3.77;;;27.30;87.50;;;;;;6728624;88;20842;-77
2021/06/16 21:04:45;;;;;;;5.80;4.05;;;27.20;87.60;;;;;;6734944;88;20530;-77
2021/06/16 21:14:45;;;;;;;6.33;4.37;;;27.00;88.20;;;;;;6730316;88;20706;-77
2021/06/16 21:24:46;;;;;;;5.90;4.65;;;26.90;89.50;;;;;;6733781;88;20589;-76
2021/06/16 21:34:46;;;;;;;8.90;4.87;;;26.60;90.20;;;;;;6733709;88;20204;-78
2021/06/16 21:44:47;;;;;;;6.35;4.62;;;26.30;90.70;;;;;;6735179;88;20222;-80
2021/06/16 21:54:47;;;;;;;7.68;4.80;;;26.20;91.00;;;;;;6734975;88;20196;-79
2021/06/16 22:04:48;;;;;;;7.53;5.00;;;26.10;91.30;;;;;;6729555;88;20201;-79
2021/06/16 22:14:48;;;;;;;8.60;4.60;;;26.00;91.80;;;;;;6729657;88;20206;-78
2021/06/16 22:24:49;;;;;;;7.43;4.50;;;25.80;92.20;;;;;;6738295;88;20520;-79
2021/06/16 22:34:49;;;;;;;6.07;4.57;;;25.60;93.00;;;;;;6740439;88;20761;-79
2021/06/16 22:44:50;;;;;;;6.37;5.05;;;25.50;93.40;;;;;;6738114;88;20199;-78
2021/06/16 22:54:50;;;;;;;8.55;5.03;;;25.30;94.10;;;;;;6738933;88;20214;-79
2021/06/16 23:04:51;;;;;;;7.50;4.90;;;25.10;95.10;;;;;;6731067;88;20207;-79
2021/06/16 23:14:52;;;;;;;8.15;4.97;;;25.10;95.30;;;;;;6731491;88;20188;-78
2021/06/16 23:24:52;;;;;;;6.25;4.80;;;25.00;95.80;;;;;;6737296;88;20674;-79
2021/06/16 23:34:53;;;;;;;6.78;4.78;;;24.90;96.90;;;;;;6736431;88;20224;-79
2021/06/16 23:44:53;;;;;;;6.82;4.97;;;24.60;98.20;;;;;;6732130;88;20192;-78
2021/06/16 23:54:54;;;;;;;7.78;5.25;;;24.40;99.10;;;;;;6736168;88;20326;-79
